createdAt,value
2022-12-08T00:00:53.914Z,100392.47
2022-12-08T00:03:20.780Z,100399.63
2022-12-08T00:06:07.129Z,100397.03
2022-12-08T00:08:52.354Z,100394.47
2022-12-08T00:11:19.227Z,100399.03
2022-12-08T00:13:45.931Z,100390.28
2022-12-08T00:16:12.514Z,100390.59
2022-12-08T00:18:39.122Z,100395.50
2022-12-08T00:21:05.925Z,100393.50
2022-12-08T00:23:32.579Z,100395.31
2022-12-08T00:26:03.503Z,100393.37
2022-12-08T00:28:30.086Z,100395.22
2022-12-08T00:30:56.702Z,100395.22
2022-12-08T00:33:23.349Z,100398.97
2022-12-08T00:35:50.012Z,100391.59
2022-12-08T00:38:16.598Z,100396.63
2022-12-08T00:40:46.676Z,100403.03
2022-12-08T00:43:13.779Z,100403.03
2022-12-08T00:45:40.445Z,100403.50
2022-12-08T00:48:07.161Z,100404.66
2022-12-08T00:50:33.744Z,100407.44
2022-12-08T00:53:00.321Z,100404.97
2022-12-08T00:55:26.868Z,100414.69
2022-12-08T00:57:53.443Z,100408.28
2022-12-08T01:00:20.347Z,100407.31
2022-12-08T01:02:46.981Z,100409.16
2022-12-08T01:05:13.606Z,100405.63
2022-12-08T01:07:40.267Z,100399.31
2022-12-08T01:10:07.640Z,100400.47
2022-12-08T01:12:34.262Z,100408.28
2022-12-08T01:15:02.600Z,100401.22
2022-12-08T01:17:29.530Z,100405.81
2022-12-08T01:19:56.153Z,100401.31
2022-12-08T01:22:22.809Z,100406.47
2022-12-08T01:24:49.361Z,100400.28
2022-12-08T01:27:16.295Z,100397.81
2022-12-08T01:29:42.860Z,100397.59
2022-12-08T01:32:09.529Z,100400.28
2022-12-08T01:34:36.114Z,100400.47
2022-12-08T01:37:02.711Z,100401.22
2022-12-08T01:39:29.990Z,100403.03
2022-12-08T01:41:56.655Z,100401.22
2022-12-08T01:44:43.041Z,100403.03
2022-12-08T01:47:09.612Z,100409.22
2022-12-08T01:49:36.224Z,100396.84
2022-12-08T01:52:09.378Z,100400.47
2022-12-08T01:54:45.755Z,100393.37
2022-12-08T01:57:22.997Z,100394.16
2022-12-08T01:59:55.069Z,100395.12
2022-12-08T02:02:21.705Z,100398.72
2022-12-08T02:04:48.347Z,100381.84
2022-12-08T02:07:14.947Z,100382.69
2022-12-08T02:09:41.517Z,100376.72
2022-12-08T02:12:08.302Z,100374.69
2022-12-08T02:14:34.919Z,100375.56
2022-12-08T02:17:14.072Z,100372.03
2022-12-08T02:19:52.914Z,100372.91
2022-12-08T02:22:31.992Z,100372.72
2022-12-08T02:25:04.518Z,100373.94
2022-12-08T02:27:34.018Z,100370.13
2022-12-08T02:30:11.537Z,100364.22
2022-12-08T02:32:56.948Z,100380.25
2022-12-08T02:35:44.376Z,100377.78
2022-12-08T02:38:23.782Z,100370.44
2022-12-08T02:40:57.475Z,100366.91
2022-12-08T02:43:35.543Z,100365.19
2022-12-08T02:46:04.721Z,100366.03
2022-12-08T02:48:32.597Z,100365.09
2022-12-08T02:50:59.149Z,100359.84
2022-12-08T02:53:27.336Z,100354.72
2022-12-08T02:56:26.271Z,100361.88
2022-12-08T02:58:56.520Z,100348.09
2022-12-08T03:01:54.796Z,100355.06
2022-12-08T03:04:58.794Z,100350.22
2022-12-08T03:07:27.137Z,100341.66
2022-12-08T03:09:58.685Z,100349.72
2022-12-08T03:12:36.124Z,100343.38
2022-12-08T03:15:06.566Z,100341.06
2022-12-08T03:17:33.126Z,100355.19
2022-12-08T03:20:01.915Z,100348.25
2022-12-08T03:22:28.866Z,100352.75
2022-12-08T03:24:55.503Z,100352.87
2022-12-08T03:27:29.008Z,100349.41
2022-12-08T03:29:58.345Z,100351.47
2022-12-08T03:32:48.345Z,100359.47
2022-12-08T03:35:17.182Z,100352.66
2022-12-08T03:37:43.809Z,100341.47
2022-12-08T03:40:12.602Z,100350.41
2022-12-08T03:42:39.207Z,100348.81
2022-12-08T03:45:06.216Z,100348.84
2022-12-08T03:47:32.830Z,100358.63
2022-12-08T03:49:59.401Z,100356.53
2022-12-08T03:52:26.077Z,100350.22
2022-12-08T03:54:54.979Z,100344.91
2022-12-08T03:57:21.807Z,100347.69
2022-12-08T03:59:48.343Z,100344.03
2022-12-08T04:02:14.936Z,100338.22
2022-12-08T04:04:41.529Z,100336.00
2022-12-08T04:07:08.113Z,100331.06
2022-12-08T04:09:34.671Z,100336.69
2022-12-08T04:12:01.254Z,100327.03
2022-12-08T04:14:27.820Z,100330.19
2022-12-08T04:16:54.356Z,100327.00
2022-12-08T04:19:20.945Z,100325.50
2022-12-08T04:21:47.520Z,100318.06
2022-12-08T04:24:14.150Z,100317.03
2022-12-08T04:26:40.687Z,100318.28
2022-12-08T04:29:07.262Z,100317.47
2022-12-08T04:31:33.856Z,100310.47
2022-12-08T04:34:00.499Z,100307.72
2022-12-08T04:36:27.050Z,100314.44
2022-12-08T04:38:54.148Z,100316.75
2022-12-08T04:41:20.678Z,100311.94
2022-12-08T04:43:47.253Z,100318.06
2022-12-08T04:46:13.882Z,100318.22
2022-12-08T04:48:40.580Z,100321.19
2022-12-08T04:51:07.229Z,100316.50
2022-12-08T04:53:33.849Z,100308.69
2022-12-08T04:56:00.391Z,100312.09
2022-12-08T04:58:26.935Z,100317.47
2022-12-08T05:00:53.596Z,100314.38
2022-12-08T05:03:25.272Z,100312.38
2022-12-08T05:05:55.029Z,100315.63
2022-12-08T05:08:21.631Z,100313.50
2022-12-08T05:10:48.301Z,100320.34
2022-12-08T05:13:14.927Z,100319.75
2022-12-08T05:15:41.499Z,100320.06
2022-12-08T05:18:08.153Z,100320.53
2022-12-08T05:20:34.989Z,100326.34
2022-12-08T05:23:01.563Z,100324.41
2022-12-08T05:25:28.139Z,100327.63
2022-12-08T05:28:06.088Z,100321.19
2022-12-08T05:30:38.170Z,100319.44
2022-12-08T05:33:04.729Z,100327.78
2022-12-08T05:35:31.386Z,100317.81
2022-12-08T05:37:57.941Z,100328.16
2022-12-08T05:40:24.507Z,100314.19
2022-12-08T05:42:51.106Z,100312.03
2022-12-08T05:45:17.744Z,100300.06
2022-12-08T05:47:44.373Z,100297.69
2022-12-08T05:50:11.049Z,100287.44
2022-12-08T05:52:37.640Z,100289.19
2022-12-08T05:55:04.386Z,100288.34
2022-12-08T05:57:30.957Z,100304.03
2022-12-08T05:59:59.503Z,100311.09
2022-12-08T06:02:26.706Z,100311.84
2022-12-08T06:04:53.473Z,100310.34
2022-12-08T06:07:20.046Z,100305.47
2022-12-08T06:09:46.602Z,100315.94
2022-12-08T06:12:13.159Z,100318.19
2022-12-08T06:14:39.791Z,100316.19
2022-12-08T06:17:06.476Z,100321.91
2022-12-08T06:19:33.133Z,100323.19
2022-12-08T06:21:59.723Z,100328.91
2022-12-08T06:24:26.306Z,100328.06
2022-12-08T06:26:52.862Z,100334.44
2022-12-08T06:29:19.452Z,100332.06
2022-12-08T06:31:46.023Z,100333.19
2022-12-08T06:34:12.731Z,100329.50
2022-12-08T06:36:39.347Z,100340.53
2022-12-08T06:39:05.974Z,100339.16
2022-12-08T06:41:32.526Z,100330.69
2022-12-08T06:43:59.086Z,100334.38
2022-12-08T06:46:25.752Z,100336.22
2022-12-08T06:48:53.076Z,100330.97
2022-12-08T06:51:21.234Z,100331.38
2022-12-08T06:53:47.834Z,100337.28
2022-12-08T06:56:15.733Z,100340.78
2022-12-08T06:58:45.037Z,100336.19
2022-12-08T07:01:13.345Z,100333.03
2022-12-08T07:03:40.159Z,100339.50
2022-12-08T07:06:06.622Z,100341.72
2022-12-08T07:08:33.280Z,100349.00
2022-12-08T07:10:59.818Z,100353.28
2022-12-08T07:13:26.228Z,100337.06
2022-12-08T07:15:52.742Z,100335.66
2022-12-08T07:18:19.130Z,100336.28
2022-12-08T07:20:45.517Z,100336.22
2022-12-08T07:23:11.930Z,100333.56
2022-12-08T07:25:40.722Z,100336.00
2022-12-08T07:28:10.620Z,100342.50
2022-12-08T07:30:37.224Z,100338.34
2022-12-08T07:33:04.687Z,100345.59
2022-12-08T07:35:31.132Z,100334.47
2022-12-08T07:37:57.823Z,100326.00
2022-12-08T07:40:24.234Z,100326.72
2022-12-08T07:42:50.604Z,100326.47
2022-12-08T07:45:17.008Z,100321.09
2022-12-08T07:47:43.387Z,100325.22
2022-12-08T07:50:09.849Z,100329.19
2022-12-08T07:52:36.245Z,100325.72
2022-12-08T07:55:02.970Z,100322.31
2022-12-08T07:57:29.368Z,100322.75
2022-12-08T07:59:55.796Z,100325.72
2022-12-08T08:02:24.662Z,100313.78
2022-12-08T08:04:52.025Z,100311.56
2022-12-08T08:07:18.481Z,100325.28
2022-12-08T08:09:45.743Z,100327.41
2022-12-08T08:12:30.921Z,100325.72
2022-12-08T08:14:58.728Z,100326.84
2022-12-08T08:17:25.316Z,100318.91
2022-12-08T08:19:51.806Z,100322.31
2022-12-08T08:22:18.203Z,100318.06
2022-12-08T08:24:45.358Z,100315.37
2022-12-08T08:27:11.822Z,100319.19
2022-12-08T08:29:38.200Z,100323.97
2022-12-08T08:32:04.728Z,100315.19
2022-12-08T08:34:31.139Z,100313.09
2022-12-08T08:36:57.609Z,100311.53
2022-12-08T08:39:24.083Z,100313.53
2022-12-08T08:41:50.510Z,100313.94
2022-12-08T08:44:16.941Z,100316.22
2022-12-08T08:46:43.428Z,100314.38
2022-12-08T08:49:09.990Z,100319.06
2022-12-08T08:51:36.552Z,100311.63
2022-12-08T08:54:02.980Z,100309.94
2022-12-08T08:56:29.377Z,100311.06
2022-12-08T08:58:55.790Z,100312.63
2022-12-08T09:01:23.279Z,100322.81
2022-12-08T09:03:49.688Z,100309.62
2022-12-08T09:06:16.220Z,100294.19
2022-12-08T09:08:42.863Z,100294.78
2022-12-08T09:11:09.343Z,100310.34
2022-12-08T09:13:35.914Z,100307.50
2022-12-08T09:16:03.216Z,100307.34
2022-12-08T09:18:29.966Z,100319.94
2022-12-08T09:20:56.379Z,100316.00
2022-12-08T09:23:22.790Z,100287.22
2022-12-08T09:25:49.177Z,100272.91
2022-12-08T09:28:15.551Z,100279.03
2022-12-08T09:30:42.005Z,100292.03
2022-12-08T09:33:08.522Z,100293.34
2022-12-08T09:35:34.972Z,100293.34
2022-12-08T09:38:01.383Z,100301.53
2022-12-08T09:40:27.822Z,100306.91
2022-12-08T09:42:59.774Z,100292.50
2022-12-08T09:45:26.797Z,100284.53
2022-12-08T09:47:58.146Z,100284.25
2022-12-08T09:50:43.450Z,100271.22
2022-12-08T09:53:12.325Z,100262.81
2022-12-08T09:55:46.588Z,100253.63
2022-12-08T09:58:16.054Z,100243.13
2022-12-08T10:00:43.360Z,100247.94
2022-12-08T10:03:16.450Z,100248.22
2022-12-08T10:05:46.445Z,100245.72
2022-12-08T10:08:20.107Z,100243.28
2022-12-08T10:10:47.524Z,100253.78
2022-12-08T10:13:32.868Z,100255.75
2022-12-08T10:16:05.334Z,100248.22
2022-12-08T10:18:32.467Z,100260.16
2022-12-08T10:21:18.418Z,100259.16
2022-12-08T10:23:45.733Z,100253.97
2022-12-08T10:26:13.018Z,100267.19
2022-12-08T10:28:44.865Z,100255.47
2022-12-08T10:31:19.376Z,100246.59
2022-12-08T10:33:45.839Z,100245.13
2022-12-08T10:36:12.296Z,100244.41
2022-12-08T10:38:38.992Z,100227.44
2022-12-08T10:41:16.531Z,100232.47
2022-12-08T10:43:54.176Z,100227.37
2022-12-08T10:46:22.182Z,100212.53
2022-12-08T10:48:55.781Z,100210.94
2022-12-08T10:51:29.924Z,100210.72
2022-12-08T10:53:56.305Z,100196.56
2022-12-08T10:56:24.611Z,100196.84
2022-12-08T10:58:51.017Z,100186.22
2022-12-08T11:01:21.280Z,100192.31
2022-12-08T11:03:48.997Z,100185.50
2022-12-08T11:06:19.410Z,100180.19
2022-12-08T11:08:50.319Z,100176.94
2022-12-08T11:11:17.058Z,100174.50
2022-12-08T11:13:43.589Z,100171.69
2022-12-08T11:16:11.860Z,100163.63
2022-12-08T11:18:46.976Z,100161.34
2022-12-08T11:21:19.734Z,100158.06
2022-12-08T11:23:47.145Z,100160.78
2022-12-08T11:26:32.426Z,100155.25
2022-12-08T11:28:58.829Z,100146.44
2022-12-08T11:31:27.622Z,100145.31
2022-12-08T11:33:54.149Z,100133.84
2022-12-08T11:36:20.805Z,100134.00
2022-12-08T11:38:52.092Z,100123.50
2022-12-08T11:41:22.734Z,100120.66
2022-12-08T11:43:49.173Z,100111.87
2022-12-08T11:46:17.887Z,100097.56
2022-12-08T11:48:44.245Z,100092.31
2022-12-08T11:51:18.558Z,100090.03
2022-12-08T11:53:53.160Z,100080.84
2022-12-08T11:56:24.459Z,100082.84
2022-12-08T11:58:53.284Z,100088.66
2022-12-08T12:01:21.668Z,100088.06
2022-12-08T12:04:08.295Z,100087.09
2022-12-08T12:06:54.738Z,100083.38
2022-12-08T12:09:30.954Z,100081.84
2022-12-08T12:12:16.674Z,100086.09
2022-12-08T12:15:01.379Z,100085.97
2022-12-08T12:17:54.274Z,100090.91
2022-12-08T12:20:21.711Z,100092.31
2022-12-08T12:22:49.350Z,100082.56
2022-12-08T12:25:23.687Z,100080.84
2022-12-08T12:27:51.106Z,100092.16
2022-12-08T12:30:24.699Z,100090.59
2022-12-08T12:32:58.386Z,100083.94
2022-12-08T12:35:32.422Z,100082.81
2022-12-08T12:38:25.892Z,100085.09
2022-12-08T12:40:53.666Z,100098.13
2022-12-08T12:43:30.405Z,100090.19
2022-12-08T12:46:17.199Z,100090.63
2022-12-08T12:48:43.651Z,100089.50
2022-12-08T12:51:28.914Z,100082.97
2022-12-08T12:53:55.286Z,100079.28
2022-12-08T12:56:46.236Z,100069.66
2022-12-08T12:59:32.741Z,100075.88
2022-12-08T13:01:59.842Z,100064.25
2022-12-08T13:04:44.166Z,100058.13
2022-12-08T13:07:10.594Z,100069.88
2022-12-08T13:09:37.460Z,100069.12
2022-12-08T13:12:10.649Z,100062.50
2022-12-08T13:14:47.480Z,100067.31
2022-12-08T13:17:15.654Z,100061.41
2022-12-08T13:19:44.379Z,100061.84
2022-12-08T13:22:36.003Z,100055.34
2022-12-08T13:25:20.946Z,100052.91
2022-12-08T13:27:53.764Z,100050.81
2022-12-08T13:30:39.070Z,100045.50
2022-12-08T13:33:20.763Z,100053.72
2022-12-08T13:36:02.064Z,100050.03
2022-12-08T13:38:29.340Z,100051.22
2022-12-08T13:40:56.200Z,100059.31
2022-12-08T13:43:51.376Z,100061.19
2022-12-08T13:58:18.092Z,100052.06
2022-12-08T14:00:53.064Z,100056.91
2022-12-08T14:03:19.471Z,100057.31
2022-12-08T14:06:11.540Z,100044.44
2022-12-08T14:11:33.630Z,100053.66
2022-12-08T14:14:05.966Z,100046.97
2022-12-08T14:16:42.534Z,100042.72
2022-12-08T14:19:22.842Z,100045.00
2022-12-08T14:21:58.069Z,100050.50
2022-12-08T14:24:25.153Z,100060.69
2022-12-08T14:26:53.306Z,100048.31
2022-12-08T14:29:38.783Z,100057.53
2022-12-08T14:32:23.749Z,100056.69
2022-12-08T14:34:56.083Z,100056.12
2022-12-08T14:37:22.788Z,100054.44
2022-12-08T14:39:49.250Z,100058.28
2022-12-08T14:42:24.463Z,100055.31
2022-12-08T14:44:59.462Z,100051.00
2022-12-08T14:47:29.683Z,100056.53
2022-12-08T14:49:56.228Z,100061.56
2022-12-08T14:52:22.906Z,100051.97
2022-12-08T14:54:50.035Z,100060.63
2022-12-08T14:57:16.601Z,100053.59
2022-12-08T14:59:43.162Z,100049.03
2022-12-08T15:02:15.613Z,100053.03
2022-12-08T15:04:43.091Z,100046.78
2022-12-08T15:07:19.290Z,100035.12
2022-12-08T15:10:09.735Z,100044.50
2022-12-08T15:12:36.297Z,100045.44
2022-12-08T15:15:15.310Z,100040.59
2022-12-08T15:17:47.890Z,100041.19
2022-12-08T15:20:35.079Z,100030.72
2022-12-08T15:23:02.013Z,100032.88
2022-12-08T15:25:28.635Z,100035.31
2022-12-08T15:27:57.067Z,100038.62
2022-12-08T15:30:23.853Z,100038.56
2022-12-08T15:32:52.377Z,100045.53
2022-12-08T15:35:19.036Z,100032.69
2022-12-08T15:37:46.442Z,100046.44
2022-12-08T15:40:18.821Z,100044.22
2022-12-08T15:42:45.501Z,100030.34
2022-12-08T15:45:15.974Z,100017.47
2022-12-08T15:47:42.774Z,100025.84
2022-12-08T15:50:17.555Z,100018.03
2022-12-08T15:52:44.286Z,100014.63
2022-12-08T15:55:18.412Z,100016.94
2022-12-08T16:09:29.877Z,100014.91
2022-12-08T16:12:15.664Z,100019.56
2022-12-08T16:17:30.917Z,100022.88
2022-12-08T16:19:57.567Z,100024.00
2022-12-08T16:25:18.784Z,100027.56
2022-12-08T16:30:33.100Z,100017.94
2022-12-08T16:32:59.684Z,100021.62
2022-12-08T16:35:26.257Z,100007.16
2022-12-08T16:37:52.809Z,100001.91
2022-12-08T16:40:19.393Z,100010.13
2022-12-08T16:42:47.797Z,100000.91
2022-12-08T16:45:19.460Z,100001.34
2022-12-08T16:47:47.558Z,100003.34
2022-12-08T16:50:15.463Z,100004.97
2022-12-08T16:52:42.017Z,100010.25
2022-12-08T16:55:13.781Z,100012.25
2022-12-08T16:57:40.479Z,100010.72
2022-12-08T17:00:09.021Z,100010.13
2022-12-08T17:02:35.584Z,100019.84
2022-12-08T17:05:02.243Z,100019.59
2022-12-08T17:07:28.881Z,100019.44
2022-12-08T17:09:55.494Z,100023.81
2022-12-08T17:12:22.138Z,100022.72
2022-12-08T17:14:48.713Z,100017.84
2022-12-08T17:17:15.282Z,100016.53
2022-12-08T17:19:41.866Z,100020.84
2022-12-08T17:22:08.436Z,100015.62
2022-12-08T17:24:35.047Z,100011.91
2022-12-08T17:27:04.481Z,100018.91
2022-12-08T17:29:31.849Z,100025.38
2022-12-08T17:31:58.563Z,100014.78
2022-12-08T17:34:25.149Z,100022.22
2022-12-08T17:36:51.873Z,100023.03
2022-12-08T17:39:19.209Z,100036.72
2022-12-08T17:41:46.436Z,100022.53
2022-12-08T17:44:14.686Z,100004.66
2022-12-08T17:46:44.298Z,100000.44
2022-12-08T17:49:18.593Z,99990.34
2022-12-08T17:51:49.162Z,99991.06
2022-12-08T17:54:16.743Z,100001.84
2022-12-08T17:56:43.543Z,100001.38
2022-12-08T17:59:10.501Z,100002.63
2022-12-08T18:01:37.189Z,99995.47
2022-12-08T18:04:05.134Z,100007.16
2022-12-08T18:06:31.701Z,99999.44
2022-12-08T18:08:58.976Z,100004.38
2022-12-08T18:11:25.757Z,100009.31
2022-12-08T18:13:52.447Z,100002.63
2022-12-08T18:16:20.432Z,99989.53
2022-12-08T18:18:47.575Z,99982.34
2022-12-08T18:21:19.902Z,99987.88
2022-12-08T18:23:49.385Z,99988.91
2022-12-08T18:26:16.034Z,99990.66
2022-12-08T18:28:42.636Z,99988.13
2022-12-08T18:31:13.871Z,99988.97
2022-12-08T18:33:41.124Z,99984.88
2022-12-08T18:36:12.883Z,99986.19
2022-12-08T18:38:39.585Z,99982.78
2022-12-08T18:41:13.289Z,99995.28
2022-12-08T18:43:39.883Z,99999.66
2022-12-08T18:46:09.409Z,100007.22
2022-12-08T18:48:37.214Z,100001.97
2022-12-08T18:51:04.257Z,100000.13
2022-12-08T18:53:31.603Z,99999.72
2022-12-08T18:55:58.177Z,99994.63
2022-12-08T18:58:24.727Z,100002.72
2022-12-08T19:00:51.317Z,99997.59
2022-12-08T19:03:18.007Z,99994.34
2022-12-08T19:05:44.611Z,99989.41
2022-12-08T19:08:11.250Z,99987.72
2022-12-08T19:10:38.177Z,99991.28
2022-12-08T19:13:05.698Z,99997.97
2022-12-08T19:15:33.700Z,99991.03
2022-12-08T19:18:00.376Z,99987.63
2022-12-08T19:20:27.505Z,99982.41
2022-12-08T19:22:54.478Z,99993.34
2022-12-08T19:25:21.839Z,99996.03
2022-12-08T19:27:48.429Z,99996.31
2022-12-08T19:30:15.653Z,99998.31
2022-12-08T19:32:42.201Z,99997.59
2022-12-08T19:35:08.921Z,100003.16
2022-12-08T19:37:35.556Z,100008.38
2022-12-08T19:40:20.641Z,100001.03
2022-12-08T19:43:05.472Z,99997.78
2022-12-08T19:45:32.565Z,99999.63
2022-12-08T19:47:59.277Z,100000.47
2022-12-08T19:50:37.993Z,99995.22
2022-12-08T19:53:09.294Z,99996.22
2022-12-08T19:55:36.557Z,99993.37
2022-12-08T19:58:03.459Z,99998.63
2022-12-08T20:00:30.396Z,99992.09
2022-12-08T20:02:58.580Z,99985.47
2022-12-08T20:05:25.512Z,99989.41
2022-12-08T20:07:55.597Z,99985.78
2022-12-08T20:10:28.108Z,99985.31
2022-12-08T20:13:15.283Z,99982.31
2022-12-08T20:15:42.069Z,99988.91
2022-12-08T20:18:08.921Z,99981.13
2022-12-08T20:20:35.485Z,99981.25
2022-12-08T20:23:02.046Z,99973.00
2022-12-08T20:25:28.650Z,99979.47
2022-12-08T20:27:55.817Z,99974.22
2022-12-08T20:30:22.452Z,99975.28
2022-12-08T20:32:49.039Z,99972.25
2022-12-08T20:35:15.657Z,99965.69
2022-12-08T20:37:42.349Z,99969.22
2022-12-08T20:40:09.371Z,99968.72
2022-12-08T20:42:35.952Z,99968.13
2022-12-08T20:45:05.300Z,99986.88
2022-12-08T20:47:32.264Z,99981.69
2022-12-08T20:49:59.037Z,99980.81
2022-12-08T20:52:25.672Z,99978.37
2022-12-08T20:54:52.274Z,99984.22
2022-12-08T20:57:18.839Z,99989.09
2022-12-08T20:59:45.547Z,99993.22
2022-12-08T21:02:12.213Z,99994.94
2022-12-08T21:04:38.977Z,99996.16
2022-12-08T21:07:05.834Z,99996.62
2022-12-08T21:09:32.577Z,100000.03
2022-12-08T21:11:59.225Z,100000.78
2022-12-08T21:14:25.835Z,100000.78
2022-12-08T21:16:54.568Z,100002.69
2022-12-08T21:19:21.686Z,99991.13
2022-12-08T21:21:50.501Z,99996.97
2022-12-08T21:24:20.673Z,99997.34
2022-12-08T21:26:47.442Z,100009.53
2022-12-08T21:29:14.145Z,100001.50
2022-12-08T21:31:41.027Z,100000.88
2022-12-08T21:34:07.974Z,99991.03
2022-12-08T21:36:34.765Z,99988.09
2022-12-08T21:39:02.775Z,99986.03
2022-12-08T21:41:48.627Z,99985.31
2022-12-08T21:44:18.401Z,99976.66
2022-12-08T21:46:45.018Z,99967.88
2022-12-08T21:49:11.749Z,99971.31
2022-12-08T21:51:42.140Z,99953.28
2022-12-08T21:54:15.041Z,99964.25
2022-12-08T21:56:45.949Z,99961.94
2022-12-08T21:59:12.609Z,99963.75
2022-12-08T22:01:39.507Z,99968.16
2022-12-08T22:04:06.440Z,99976.06
2022-12-08T22:06:33.292Z,99974.47
2022-12-08T22:09:00.220Z,99980.94
2022-12-08T22:11:27.681Z,99974.34
2022-12-08T22:13:54.486Z,99977.28
2022-12-08T22:16:21.346Z,99971.91
2022-12-08T22:18:48.135Z,99971.78
2022-12-08T22:21:16.142Z,99967.53
2022-12-08T22:23:43.016Z,99964.72
2022-12-08T22:26:09.831Z,99963.50
2022-12-08T22:28:40.712Z,99963.50
2022-12-08T22:31:11.386Z,99969.97
2022-12-08T22:33:39.001Z,99984.94
2022-12-08T22:36:10.706Z,99991.28
2022-12-08T22:38:37.839Z,99992.97
2022-12-08T22:41:05.240Z,99982.50
2022-12-08T22:43:32.077Z,99983.47
2022-12-08T22:45:58.702Z,99981.53
2022-12-08T22:48:25.465Z,99975.91
2022-12-08T22:50:52.032Z,99972.91
2022-12-08T22:53:18.605Z,99972.66
2022-12-08T22:55:45.277Z,99981.53
2022-12-08T22:58:12.006Z,99971.31
2022-12-08T23:00:38.658Z,99974.22
2022-12-08T23:03:05.840Z,99969.72
2022-12-08T23:05:36.787Z,99967.88
2022-12-08T23:08:03.635Z,99980.31
2022-12-08T23:10:30.353Z,99978.97
2022-12-08T23:13:03.510Z,99976.19
2022-12-08T23:15:30.691Z,99973.50
2022-12-08T23:17:57.502Z,99966.56
2022-12-08T23:20:24.228Z,99960.50
2022-12-08T23:22:51.012Z,99962.56
2022-12-08T23:25:18.532Z,99971.09
2022-12-08T23:27:45.571Z,99975.56
2022-12-08T23:30:12.681Z,99956.84
2022-12-08T23:32:39.356Z,99964.03
2022-12-08T23:35:06.645Z,99955.50
2022-12-08T23:37:33.186Z,99958.41
2022-12-08T23:39:59.890Z,99965.56
2022-12-08T23:42:26.454Z,99981.41
2022-12-08T23:44:53.137Z,99969.84
2022-12-08T23:47:19.810Z,99972.53
2022-12-08T23:49:46.382Z,99956.13
2022-12-08T23:52:13.820Z,99952.31
2022-12-08T23:54:40.579Z,99945.28
2022-12-08T23:57:07.807Z,99952.09
2022-12-08T23:59:34.408Z,99952.09
